This is the latest recevied weather packets stored in our database for station/object EA7AVH-10. If no packets are shown the sender has not sent any weather packets the latest 10 day(s).
| Time | Temp. | Humidity | Pressure | Rain* | Wind** | Luminosity | Snow |
|---|---|---|---|---|---|---|---|
| 1777816064 | 22.78° C | 59% | 921 hPa | - | - | - | - |
| 1777815163 | 23.89° C | 58% | 921.1 hPa | - | - | - | - |
| 1777814262 | 24.44° C | 58% | 921.3 hPa | - | - | - | - |
| 1777813361 | 26.11° C | 57% | 921.4 hPa | - | - | - | - |
| 1777812461 | 24.44° C | 60% | 921.6 hPa | - | - | - | - |
| 1777805253 | 18.33° C | 76% | 923 hPa | - | - | - | - |
| 1777804352 | 17.22° C | 78% | 923.2 hPa | - | - | - | - |
| 1777803451 | 16.67° C | 80% | 923.4 hPa | - | - | - | - |
| 1777802550 | 16.11° C | 81% | 923.5 hPa | - | - | - | - |
| 1777801650 | 16.11° C | 81% | 923.5 hPa | - | - | - | - |
| 1777800749 | 16.11° C | 81% | 923.5 hPa | - | - | - | - |
| 1777799848 | 16.11° C | 81% | 923.6 hPa | - | - | - | - |
| 1777798947 | 16.11° C | 81% | 923.7 hPa | - | - | - | - |
| 1777798046 | 15.56° C | 82% | 923.7 hPa | - | - | - | - |
| 1777797146 | 15° C | 83% | 923.7 hPa | - | - | - | - |
| 1777796245 | 15° C | 83% | 923.6 hPa | - | - | - | - |
| 1777795344 | 15° C | 83% | 923.4 hPa | - | - | - | - |
| 1777794443 | 15° C | 84% | 923.3 hPa | - | - | - | - |
| 1777793542 | 15° C | 84% | 923.2 hPa | - | - | - | - |
| 1777792642 | 15° C | 83% | 923.4 hPa | - | - | - | - |
| 1777791741 | 15° C | 81% | 923 hPa | - | - | - | - |
| 1777790840 | 15.56° C | 80% | 923 hPa | - | - | - | - |
| 1777789939 | 15.56° C | 80% | 923.1 hPa | - | - | - | - |
| 1777789038 | 15.56° C | 80% | 923 hPa | - | - | - | - |
| 1777788138 | 15° C | 80% | 922.9 hPa | - | - | - | - |
* Rain since midnight (hover to see other rain measurements)
** Current wind speed in m/s (hover to see current wind gust speed)